sensor_id;sensor_type;location;lat;lon;timestamp;pressure;altitude;pressure_sealevel;temperature;humidity
5679;BME280;2862;52.560;13.566;2022-12-18T00:08:01;102390.81;;;-4.52;95.24
5679;BME280;2862;52.560;13.566;2022-12-18T00:18:06;102416.81;;;-4.69;94.53
5679;BME280;2862;52.560;13.566;2022-12-18T00:28:09;102410.69;;;-4.74;94.37
5679;BME280;2862;52.560;13.566;2022-12-18T00:38:14;102410.28;;;-5.23;95.75
5679;BME280;2862;52.560;13.566;2022-12-18T00:48:17;102393.72;;;-5.28;97.25
5679;BME280;2862;52.560;13.566;2022-12-18T00:58:26;102394.66;;;-5.21;98.14
5679;BME280;2862;52.560;13.566;2022-12-18T01:08:28;102379.22;;;-4.95;97.05
5679;BME280;2862;52.560;13.566;2022-12-18T01:18:36;102402.41;;;-5.29;98.37
5679;BME280;2862;52.560;13.566;2022-12-18T01:28:40;102419.78;;;-5.28;98.02
5679;BME280;2862;52.560;13.566;2022-12-18T01:38:47;102425.75;;;-5.44;98.24
5679;BME280;2862;52.560;13.566;2022-12-18T01:48:52;102425.75;;;-5.40;98.74
5679;BME280;2862;52.560;13.566;2022-12-18T01:59:02;102423.84;;;-5.57;98.90
5679;BME280;2862;52.560;13.566;2022-12-18T02:09:11;102433.50;;;-5.47;98.21
5679;BME280;2862;52.560;13.566;2022-12-18T02:19:34;102428.25;;;-5.53;98.62
5679;BME280;2862;52.560;13.566;2022-12-18T02:29:49;102435.56;;;-5.14;97.23
5679;BME280;2862;52.560;13.566;2022-12-18T02:39:59;102446.88;;;-5.11;96.54
5679;BME280;2862;52.560;13.566;2022-12-18T02:50:13;102458.00;;;-5.33;96.60
5679;BME280;2862;52.560;13.566;2022-12-18T03:00:28;102467.53;;;-5.34;96.00
5679;BME280;2862;52.560;13.566;2022-12-18T03:10:40;102466.75;;;-5.23;95.45
5679;BME280;2862;52.560;13.566;2022-12-18T03:20:48;102473.06;;;-5.80;95.78
5679;BME280;2862;52.560;13.566;2022-12-18T03:30:58;102474.06;;;-5.72;96.34
5679;BME280;2862;52.560;13.566;2022-12-18T03:41:14;102461.16;;;-5.62;96.81
5679;BME280;2862;52.560;13.566;2022-12-18T03:51:53;102462.03;;;-5.61;96.83
5679;BME280;2862;52.560;13.566;2022-12-18T04:01:59;102483.69;;;-5.65;96.38
5679;BME280;2862;52.560;13.566;2022-12-18T04:12:06;102477.34;;;-5.85;96.89
5679;BME280;2862;52.560;13.566;2022-12-18T04:22:10;102483.84;;;-6.23;98.32
5679;BME280;2862;52.560;13.566;2022-12-18T04:32:19;102483.91;;;-6.18;98.50
5679;BME280;2862;52.560;13.566;2022-12-18T04:42:22;102489.13;;;-6.17;97.74
5679;BME280;2862;52.560;13.566;2022-12-18T04:52:27;102498.06;;;-5.98;97.60
5679;BME280;2862;52.560;13.566;2022-12-18T05:02:30;102496.78;;;-6.30;98.54
5679;BME280;2862;52.560;13.566;2022-12-18T05:12:36;102503.56;;;-6.40;99.19
5679;BME280;2862;52.560;13.566;2022-12-18T05:23:00;102520.81;;;-6.47;99.51
5679;BME280;2862;52.560;13.566;2022-12-18T05:33:04;102533.13;;;-6.33;98.48
5679;BME280;2862;52.560;13.566;2022-12-18T05:43:07;102550.75;;;-6.16;97.68
5679;BME280;2862;52.560;13.566;2022-12-18T05:53:12;102544.16;;;-5.92;96.90
5679;BME280;2862;52.560;13.566;2022-12-18T06:03:16;102543.81;;;-6.15;97.87
5679;BME280;2862;52.560;13.566;2022-12-18T06:13:21;102562.22;;;-6.03;96.49
5679;BME280;2862;52.560;13.566;2022-12-18T06:23:24;102569.22;;;-5.99;96.63
5679;BME280;2862;52.560;13.566;2022-12-18T06:33:29;102584.53;;;-6.20;97.19
5679;BME280;2862;52.560;13.566;2022-12-18T06:43:32;102612.88;;;-6.37;98.24
5679;BME280;2862;52.560;13.566;2022-12-18T06:53:36;102616.69;;;-6.17;98.03
5679;BME280;2862;52.560;13.566;2022-12-18T07:03:41;102625.81;;;-5.85;96.85
5679;BME280;2862;52.560;13.566;2022-12-18T07:13:46;102616.59;;;-6.23;98.51
5679;BME280;2862;52.560;13.566;2022-12-18T07:23:49;102613.09;;;-6.25;98.91
5679;BME280;2862;52.560;13.566;2022-12-18T07:33:54;102638.50;;;-6.08;97.77
5679;BME280;2862;52.560;13.566;2022-12-18T07:43:57;102619.34;;;-4.80;100.00
5679;BME280;2862;52.560;13.566;2022-12-18T07:54:01;102641.22;;;-5.40;93.60
5679;BME280;2862;52.560;13.566;2022-12-18T08:04:03;102630.56;;;-6.19;97.55
5679;BME280;2862;52.560;13.566;2022-12-18T08:14:08;102630.06;;;-5.95;97.59
5679;BME280;2862;52.560;13.566;2022-12-18T08:24:11;102629.81;;;-6.09;98.40
5679;BME280;2862;52.560;13.566;2022-12-18T08:34:15;102642.28;;;-6.43;100.00
5679;BME280;2862;52.560;13.566;2022-12-18T08:44:17;102647.19;;;-6.08;100.00
5679;BME280;2862;52.560;13.566;2022-12-18T08:54:39;102656.91;;;-5.99;100.00
5679;BME280;2862;52.560;13.566;2022-12-18T09:04:42;102677.91;;;-5.85;100.00
5679;BME280;2862;52.560;13.566;2022-12-18T09:14:47;102676.44;;;-5.68;100.00
5679;BME280;2862;52.560;13.566;2022-12-18T09:24:50;102676.56;;;-5.61;100.00
5679;BME280;2862;52.560;13.566;2022-12-18T09:34:54;102697.44;;;-5.57;100.00
5679;BME280;2862;52.560;13.566;2022-12-18T09:44:58;102683.88;;;-5.35;100.00
5679;BME280;2862;52.560;13.566;2022-12-18T09:55:11;102653.75;;;-5.13;100.00
5679;BME280;2862;52.560;13.566;2022-12-18T10:05:25;102640.84;;;-4.99;100.00
5679;BME280;2862;52.560;13.566;2022-12-18T10:15:36;102608.28;;;-4.55;100.00
5679;BME280;2862;52.560;13.566;2022-12-18T10:25:53;102626.56;;;-4.56;100.00
5679;BME280;2862;52.560;13.566;2022-12-18T10:35:59;102623.03;;;-4.61;100.00
5679;BME280;2862;52.560;13.566;2022-12-18T10:46:14;102610.88;;;-4.56;100.00
5679;BME280;2862;52.560;13.566;2022-12-18T10:56:20;102585.59;;;-4.63;100.00
5679;BME280;2862;52.560;13.566;2022-12-18T11:06:25;102579.47;;;-4.67;100.00
5679;BME280;2862;52.560;13.566;2022-12-18T11:16:32;102578.44;;;-4.84;100.00
5679;BME280;2862;52.560;13.566;2022-12-18T11:26:36;102557.06;;;-4.42;100.00
5679;BME280;2862;52.560;13.566;2022-12-18T11:36:42;102580.78;;;-4.14;100.00
5679;BME280;2862;52.560;13.566;2022-12-18T11:46:51;102584.91;;;-4.42;100.00
5679;BME280;2862;52.560;13.566;2022-12-18T11:57:05;102589.97;;;-4.59;100.00
5679;BME280;2862;52.560;13.566;2022-12-18T12:07:22;102602.13;;;-4.61;100.00
5679;BME280;2862;52.560;13.566;2022-12-18T12:17:34;102617.69;;;-4.73;100.00
5679;BME280;2862;52.560;13.566;2022-12-18T12:27:47;102624.56;;;-4.82;100.00
5679;BME280;2862;52.560;13.566;2022-12-18T12:38:06;102633.50;;;-4.58;100.00
5679;BME280;2862;52.560;13.566;2022-12-18T12:48:17;102638.03;;;-4.40;99.84
5679;BME280;2862;52.560;13.566;2022-12-18T12:58:28;102629.44;;;-4.25;99.01
5679;BME280;2862;52.560;13.566;2022-12-18T13:08:54;102582.47;;;-4.24;99.90
5679;BME280;2862;52.560;13.566;2022-12-18T13:19:00;102587.66;;;-4.29;100.00
5679;BME280;2862;52.560;13.566;2022-12-18T13:29:03;102597.94;;;-4.42;99.93
5679;BME280;2862;52.560;13.566;2022-12-18T13:39:22;102589.47;;;-4.14;99.98
5679;BME280;2862;52.560;13.566;2022-12-18T13:49:36;102585.91;;;-4.30;100.00
5679;BME280;2862;52.560;13.566;2022-12-18T13:59:41;102554.66;;;-4.17;100.00
5679;BME280;2862;52.560;13.566;2022-12-18T14:09:46;102541.34;;;-4.48;100.00
5679;BME280;2862;52.560;13.566;2022-12-18T14:19:52;102539.59;;;-4.49;100.00
5679;BME280;2862;52.560;13.566;2022-12-18T14:29:55;102538.63;;;-4.62;100.00
5679;BME280;2862;52.560;13.566;2022-12-18T14:40:05;102516.03;;;-4.61;100.00
5679;BME280;2862;52.560;13.566;2022-12-18T14:50:13;102490.88;;;-4.50;100.00
5679;BME280;2862;52.560;13.566;2022-12-18T15:00:19;102468.91;;;-4.79;100.00
5679;BME280;2862;52.560;13.566;2022-12-18T15:10:24;102495.91;;;-4.71;100.00
5679;BME280;2862;52.560;13.566;2022-12-18T15:20:31;102537.72;;;-4.68;100.00
5679;BME280;2862;52.560;13.566;2022-12-18T15:30:35;102540.75;;;-5.12;100.00
5679;BME280;2862;52.560;13.566;2022-12-18T15:40:39;102519.13;;;-5.02;100.00
5679;BME280;2862;52.560;13.566;2022-12-18T15:50:42;102542.75;;;-4.87;100.00
5679;BME280;2862;52.560;13.566;2022-12-18T16:00:47;102524.47;;;-4.91;100.00
5679;BME280;2862;52.560;13.566;2022-12-18T16:10:50;102522.72;;;-4.88;100.00
5679;BME280;2862;52.560;13.566;2022-12-18T16:20:54;102501.13;;;-4.71;100.00
5679;BME280;2862;52.560;13.566;2022-12-18T16:30:57;102480.34;;;-4.61;100.00
5679;BME280;2862;52.560;13.566;2022-12-18T16:41:01;102490.00;;;-4.47;100.00
5679;BME280;2862;52.560;13.566;2022-12-18T16:51:22;102493.44;;;-4.58;100.00
5679;BME280;2862;52.560;13.566;2022-12-18T17:01:28;102469.81;;;-4.74;100.00
5679;BME280;2862;52.560;13.566;2022-12-18T17:11:33;102483.75;;;-4.72;100.00
5679;BME280;2862;52.560;13.566;2022-12-18T17:21:37;102481.13;;;-4.74;100.00
5679;BME280;2862;52.560;13.566;2022-12-18T17:31:40;102481.13;;;-4.71;100.00
5679;BME280;2862;52.560;13.566;2022-12-18T17:41:45;102499.28;;;-4.86;100.00
5679;BME280;2862;52.560;13.566;2022-12-18T17:51:49;102497.50;;;-4.89;100.00
5679;BME280;2862;52.560;13.566;2022-12-18T18:01:53;102475.75;;;-4.92;100.00
5679;BME280;2862;52.560;13.566;2022-12-18T18:11:56;102461.72;;;-5.07;100.00
5679;BME280;2862;52.560;13.566;2022-12-18T18:22:18;102452.16;;;-5.08;100.00
5679;BME280;2862;52.560;13.566;2022-12-18T18:32:21;102424.16;;;-5.27;100.00
5679;BME280;2862;52.560;13.566;2022-12-18T18:42:26;102421.66;;;-5.15;100.00
5679;BME280;2862;52.560;13.566;2022-12-18T18:52:29;102398.94;;;-5.28;100.00
5679;BME280;2862;52.560;13.566;2022-12-18T19:02:33;102394.56;;;-5.32;100.00
5679;BME280;2862;52.560;13.566;2022-12-18T19:12:37;102381.44;;;-5.40;100.00
5679;BME280;2862;52.560;13.566;2022-12-18T19:22:59;102358.69;;;-5.57;100.00
5679;BME280;2862;52.560;13.566;2022-12-18T19:33:02;102353.50;;;-5.57;100.00
5679;BME280;2862;52.560;13.566;2022-12-18T19:43:12;102342.25;;;-5.53;99.65
5679;BME280;2862;52.560;13.566;2022-12-18T19:53:16;102346.69;;;-5.42;99.13
5679;BME280;2862;52.560;13.566;2022-12-18T20:03:21;102338.00;;;-5.39;98.40
5679;BME280;2862;52.560;13.566;2022-12-18T20:13:29;102334.53;;;-5.41;97.97
5679;BME280;2862;52.560;13.566;2022-12-18T20:23:34;102306.72;;;-5.39;97.57
5679;BME280;2862;52.560;13.566;2022-12-18T20:33:37;102299.72;;;-5.48;97.73
5679;BME280;2862;52.560;13.566;2022-12-18T20:43:41;102303.28;;;-5.38;97.38
5679;BME280;2862;52.560;13.566;2022-12-18T20:53:46;102323.13;;;-5.54;97.76
5679;BME280;2862;52.560;13.566;2022-12-18T21:03:53;102298.00;;;-5.49;97.53
5679;BME280;2862;52.560;13.566;2022-12-18T21:13:56;102294.63;;;-5.34;96.88
5679;BME280;2862;52.560;13.566;2022-12-18T21:24:01;102289.34;;;-5.40;96.65
5679;BME280;2862;52.560;13.566;2022-12-18T21:34:04;102275.53;;;-5.33;96.36
5679;BME280;2862;52.560;13.566;2022-12-18T21:44:10;102259.03;;;-5.30;96.17
5679;BME280;2862;52.560;13.566;2022-12-18T21:54:13;102262.50;;;-5.28;96.13
5679;BME280;2862;52.560;13.566;2022-12-18T22:04:18;102269.50;;;-5.24;95.54
5679;BME280;2862;52.560;13.566;2022-12-18T22:14:22;102273.81;;;-5.28;95.85
5679;BME280;2862;52.560;13.566;2022-12-18T22:24:26;102246.88;;;-5.28;95.73
5679;BME280;2862;52.560;13.566;2022-12-18T22:34:30;102235.63;;;-5.21;95.35
5679;BME280;2862;52.560;13.566;2022-12-18T22:44:36;102211.34;;;-5.14;95.20
5679;BME280;2862;52.560;13.566;2022-12-18T22:54:39;102196.56;;;-5.14;95.09
5679;BME280;2862;52.560;13.566;2022-12-18T23:04:44;102172.22;;;-5.11;94.81
5679;BME280;2862;52.560;13.566;2022-12-18T23:14:48;102140.91;;;-5.19;95.32
5679;BME280;2862;52.560;13.566;2022-12-18T23:24:53;102123.53;;;-5.17;95.05
5679;BME280;2862;52.560;13.566;2022-12-18T23:34:55;102124.44;;;-5.15;94.86
5679;BME280;2862;52.560;13.566;2022-12-18T23:45:00;102103.56;;;-5.13;94.91
5679;BME280;2862;52.560;13.566;2022-12-18T23:55:10;102082.72;;;-5.12;94.91
